Tiempo atmosférico en la estación meteorológica de Ramales de la Victoria, Cantabria (80 m.)



Fecha
DESCASC
Temp. máxima en grados centígrados (hora)
DESCASC
Temp. mínima en grados centígrados (hora)
DESCASC
Temp. media en grados centígrados
DESCASC
Racha de viento máxima en m/sg (hora)
DESCASC
Velocidad máxima media en intervalos de 10 minutos(hora)
DESCASC
Precipitaciones diarias en mm
DESCASC
Precipitaciones de 00:00 a 06:00 en mm
DESCASC
Precipitaciones de 06:00 a 12:00 en mm
DESCASC
Precipitaciones de 12:00 a 18:00 en mm
DESCASC
Precipitaciones de 18:00 a 24:00 en mm
DESCASC
11-08-2020 29.2 (13:40) 18.5 (07:40) 23.9 9.17 (15:50) 3.89 (15:50) 4.4 0.4 0.2 3.8 0
10-08-2020 25.2 (13:30) 19.8 (07:40) 22.5 4.72 (15:00) 1.94 (15:00) 0 0 0 0 0
09-08-2020 29.2 (14:50) 18 (07:10) 23.6 7.5 (15:20) 3.33 (15:10) 0.4 0.4 0 0 0
08-08-2020 31 (15:10) 15.3 (07:20) 23.2 6.94 (23:40) 3.33 (16:30) 6.4 0 0 0 6.4
07-08-2020 30.1 (13:10) 17.6 (00:00) 23.9 7.22 (17:00) 3.61 (17:00) 2 0 0 2 0
06-08-2020 38.3 (16:00) 12.3 (00:00) 25.3 5.83 (16:50) 2.5 (16:10) 0 0 0 0 0
05-08-2020 32 (15:10) 11.6 (00:00) 21.8 7.22 (17:00) 3.33 (16:10) 0 0 0 0 0
04-08-2020 26.9 (16:20) 13.2 (03:00) 20 5.83 (17:20) 2.5 (13:50) -- 0 0 0 --
03-08-2020 25.7 (17:00) 15.3 (07:20) 20.5 8.61 (16:50) 3.06 (16:50) 0 0 0 0 0
02-08-2020 21.2 (17:30) 16.8 (00:00) 19 4.17 (19:20) 2.22 (19:20) 4.4 1.6 1 1.8 0
01-08-2020 24.9 (12:50) 15.7 (00:00) 20.3 6.11 (15:10) 3.33 (15:10) 4.6 0 0 0 4.6
31-07-2020 29.5 (14:20) 17.6 (07:30) 23.6 6.94 (15:20) 3.06 (15:20) 0 0 0 0 0
30-07-2020 40.7 (15:30) 18.1 (00:00) 29.4 10.83 (16:10) 3.89 (16:10) 0 0 0 0 0
29-07-2020 23.8 (12:40) 17.9 (00:00) 20.8 6.67 (13:00) 2.78 (12:50) 0.4 0.2 0.2 0 0
28-07-2020 24.8 (13:40) 16.7 (00:00) 20.8 5 (14:10) 2.5 (14:00) 1 0 0 0.4 0.6
27-07-2020 30.6 (15:10) 15.3 (00:00) 23 7.22 (16:40) 3.61 (16:40) 0 0 0 0 0
26-07-2020 27.4 (13:40) 15.1 (00:00) 21.3 5.28 (13:20) 2.5 (14:20) 0 0 0 0 0
25-07-2020 27.9 (16:00) 12.3 (00:00) 20.1 7.5 (16:10) 3.06 (19:30) 0 0 0 0 0
24-07-2020 25 (18:40) 17.9 (00:00) 21.4 5.83 (18:40) 2.78 (18:00) 0 0 0 0 0
23-07-2020 25.9 (15:00) 18.3 (00:00) 22.1 4.72 (12:20) 1.94 (16:50) 0.2 0 0.2 0 0
22-07-2020 28 (12:20) 18.2 (00:00) 23.1 6.39 (13:00) 2.78 (13:10) 0.8 0 0 0 0.8
21-07-2020 26.9 (12:50) 16.4 (00:00) 21.6 5 (14:00) 1.94 (13:10) 0 0 0 0 0
20-07-2020 29.1 (14:30) 15.2 (00:00) 22.2 6.94 (15:20) 3.06 (14:50) 0 0 0 0 0
19-07-2020 30.5 (15:50) 13.1 (00:00) 21.8 7.78 (16:30) 3.33 (16:30) 0 0 0 0 0
18-07-2020 30.5 (14:50) 11.7 (00:00) 21.1 6.39 (16:10) 3.33 (15:50) 0 0 0 0 0
17-07-2020 25.8 (14:40) 15.7 (00:00) 20.7 6.11 (17:20) 2.5 (17:40) 0 0 0 0 0
16-07-2020 23.7 (16:40) 13.6 (00:00) 18.7 7.22 (16:10) 3.06 (16:40) 0 0 0 0 0
15-07-2020 23.2 (15:30) 12.3 (00:00) 17.8 7.78 (16:20) 3.06 (16:20) 1 0 1 0 0

Gráficas

Temp. máximas Temp. mínimas Temp. medias Precipitaciones Rachas de viento máximas Velocidades máximas media en intervalos de 10 minutos

Datos horarios

Fecha y hora oficial Temperatura (ºC) Velocidad del viento (km/h) Dirección del viento Racha (km/h) Dirección de racha Precipitación (mm) Presión (hPa) Tendencia (hPa) Humedad (%)
2020-08-13 23:00:00 18.6 0 Calma 12 Sur 0 -- -- 83
2020-08-13 22:00:00 18.9 5 Sur 12 Sudeste 0 -- -- 82
2020-08-13 21:00:00 19.3 2 Sudoeste 4 Oeste 0 -- -- 83
2020-08-13 20:00:00 20 0 Calma 7 Noroeste 0 -- -- 80
2020-08-13 19:00:00 20.1 3 Oeste 10 Oeste 0 -- -- 76
2020-08-13 18:00:00 20.3 4 Oeste 15 Sudoeste 0 -- -- 75
2020-08-13 17:00:00 20.6 5 Oeste 17 Oeste 0 -- -- 73
2020-08-13 16:00:00 20.7 9 Oeste 21 Noroeste 0 -- -- 72
2020-08-13 15:00:00 21.6 6 Noroeste 21 Noroeste 0 -- -- 69
2020-08-13 14:00:00 22.3 10 Oeste 21 Oeste 0 -- -- 66
2020-08-13 13:00:00 22.7 7 Oeste 23 Oeste 0 -- -- 66
2020-08-13 12:00:00 22.2 7 Noroeste 14 Oeste 0 -- -- 64
2020-08-13 11:00:00 21.4 7 Noroeste 19 Noroeste 0 -- -- 66
2020-08-13 10:00:00 20.7 7 Noroeste 17 Noroeste 0 -- -- 68
2020-08-13 09:00:00 18.5 2 Este 8 Sudeste 0 -- -- 84
2020-08-13 08:00:00 18.7 0 Calma 20 Oeste 0 -- -- 80
2020-08-13 07:00:00 19.2 11 Oeste 22 Oeste 0 -- -- 70
2020-08-13 06:00:00 19.1 7 Oeste 23 Noroeste 0 -- -- 71
2020-08-13 05:00:00 18.5 8 Oeste 18 Oeste 0 -- -- 75
2020-08-13 04:00:00 17.6 3 Oeste 18 Norte 0 -- -- 84
2020-08-13 03:00:00 17.6 3 Sudeste 11 Oeste 0 -- -- 90
2020-08-13 02:00:00 18.8 4 Noroeste 17 Noroeste 0 -- -- 77
2020-08-13 01:00:00 18.7 4 Oeste 18 Oeste 0 -- -- 82
2020-08-13 00:00:00 18.4 3 Sudeste 8 Nordeste 0 -- -- 94
2020-08-12 23:00:00 18.7 3 Sudoeste 9 Sudoeste 0 -- -- 94
2020-08-12 22:00:00 19.2 2 Sur 17 Noroeste 2 -- -- 94
2020-08-12 21:00:00 20.3 12 Oeste 24 Oeste 1 -- -- 88
2020-08-12 20:00:00 22 0 Calma 6 Oeste 0 -- -- 93
2020-08-12 19:00:00 22.2 0 Calma 12 Noroeste 0 -- -- 91
2020-08-12 18:00:00 23.2 4 Noroeste 16 Nordeste 0 -- -- 83
2020-08-12 17:00:00 25 2 Sur 20 Nordeste 1.8 -- -- 82
2020-08-12 16:00:00 28.3 6 Norte 20 Nordeste 0 -- -- 60
2020-08-12 15:00:00 30.2 6 Este 19 Sudeste 0 -- -- 46
2020-08-12 14:00:00 28.2 3 Este 14 Sur 0 -- -- 53
2020-08-12 13:00:00 26.9 4 Este 14 Sur 0 -- -- 58
2020-08-12 12:00:00 26.6 4 Noroeste 34 Sur 0 -- -- 57
2020-08-12 11:00:00 23.2 6 Sudeste 22 Sur 0 -- -- 65
2020-08-12 10:00:00 19.9 4 Sudoeste 8 Oeste 0 -- -- 92
2020-08-12 09:00:00 18.3 2 Norte 8 Oeste 0 -- -- 98
2020-08-12 08:00:00 17.6 0 Calma 4 Sudeste 0 -- -- 98
2020-08-12 07:00:00 17.7 0 Calma 4 Sudeste 0 -- -- 98
2020-08-12 06:00:00 18 0 Calma 7 Oeste 0 -- -- 97
2020-08-12 05:00:00 18.3 0 Calma 8 Oeste 0.2 -- -- 97
2020-08-12 04:00:00 18.6 0 Calma 5 Sudoeste 0 -- -- 98
2020-08-12 03:00:00 18.7 0 Calma 5 Sudoeste 0.2 -- -- 98
2020-08-12 02:00:00 18.8 0 Calma 8 Sudoeste 0.6 -- -- 97
2020-08-12 01:00:00 18.8 2 Nordeste 6 Sudoeste 0.4 -- -- 97
2020-08-12 00:00:00 18.7 2 Oeste 9 Sudoeste 0 -- -- 97
2020-08-11 23:00:00 18.8 2 Este 6 Oeste 0 -- -- 96
2020-08-11 22:00:00 19.4 0 Calma 6 Sudoeste 0 -- -- 94
2020-08-11 21:00:00 20.9 0 Calma 6 Sudoeste 0 -- -- 90
2020-08-11 20:00:00 21.8 0 Calma 6 Oeste 0 -- -- 90
2020-08-11 19:00:00 21.6 0 Calma 9 Sudeste 0 -- -- 91
2020-08-11 18:00:00 21.2 2 Sudeste 12 Oeste 0 -- -- 91
2020-08-11 17:00:00 20.5 8 Este 20 Sudeste 1.2 -- -- 87
2020-08-11 16:00:00 23.2 12 Sudeste 33 Noroeste 2.6 -- -- 72
2020-08-11 15:00:00 28.2 4 Este 13 Nordeste 0 -- -- 73
2020-08-11 14:00:00 28.8 6 Nordeste 12 Norte 0 -- -- 67
2020-08-11 13:00:00 27.3 3 Este 14 Nordeste 0 -- -- 69
2020-08-11 12:00:00 24.6 4 Nordeste 8 Nordeste 0 -- -- 77
2020-08-11 11:00:00 21.2 0 Calma 8 Oeste 0 -- -- 93
2020-08-11 10:00:00 20.1 0 Calma 4 Oeste 0 -- -- 96
2020-08-11 09:00:00 19.2 0 Calma 6 Sudoeste 0 -- -- 98
2020-08-11 08:00:00 18.6 0 Calma 3 Sur 0 -- -- 97
2020-08-11 07:00:00 18.9 0 Calma 12 Sur 0.2 -- -- 97
2020-08-11 06:00:00 19.2 3 Noroeste 8 Oeste 0.4 -- -- 97
2020-08-11 05:00:00 19 0 Calma 5 Nordeste 0 -- -- 96
2020-08-11 04:00:00 19.7 0 Calma 3 Sur 0 -- -- 96
2020-08-11 03:00:00 19.7 0 Calma 2 Oeste 0 -- -- 96
2020-08-11 02:00:00 19.8 0 Calma 3 Oeste 0 -- -- 95
2020-08-11 01:00:00 19.8 0 Calma 3 Oeste 0 -- -- 95
2020-08-11 00:00:00 20 0 Calma 3 Sudeste 0 -- -- 94
2020-08-10 23:00:00 20.2 0 Calma 4 Noroeste 0 -- -- 93
2020-08-10 22:00:00 20.6 3 Oeste 8 Noroeste 0 -- -- 90
2020-08-10 21:00:00 21.4 6 Oeste 12 Sudoeste 0 -- -- 85
2020-08-10 20:00:00 22.2 2 Nordeste 5 Nordeste 0 -- -- 83
2020-08-10 19:00:00 22.4 2 Nordeste 5 Norte 0 -- -- 81
2020-08-10 18:00:00 21.9 4 Oeste 10 Oeste 0 -- -- 83
2020-08-10 17:00:00 22.3 3 Oeste 11 Oeste 0 -- -- 81
2020-08-10 16:00:00 22.9 5 Nordeste 13 Nordeste 0 -- -- 79
2020-08-10 15:00:00 24 7 Nordeste 17 Nordeste 0 -- -- 77
2020-08-10 14:00:00 24.7 5 Noroeste 12 Norte 0 -- -- 71
2020-08-10 13:00:00 25 3 Norte 10 Nordeste 0 -- -- 73
2020-08-10 12:00:00 23.6 2 Norte 9 Oeste 0 -- -- 74
2020-08-10 11:00:00 22.1 3 Oeste 6 Oeste 0 -- -- 85
2020-08-10 10:00:00 20.6 2 Oeste 4 Oeste 0 -- -- 92
2020-08-10 09:00:00 20.2 2 Sudoeste 4 Oeste 0 -- -- 95
2020-08-10 08:00:00 19.8 0 Calma 3 Sur 0 -- -- 96
2020-08-10 07:00:00 19.9 0 Calma 2 Sur 0 -- -- 95
2020-08-10 06:00:00 20 0 Calma 2 Oeste 0 -- -- 95
2020-08-10 05:00:00 20.1 0 Calma 2 Oeste 0 -- -- 95
2020-08-10 04:00:00 20.2 0 Calma 5 Oeste 0 -- -- 94
2020-08-10 03:00:00 20.3 0 Calma 3 Norte 0 -- -- 94
2020-08-10 02:00:00 20.4 2 Sur 5 Oeste 0 -- -- 94
2020-08-10 01:00:00 20.6 0 Calma 4 Sudoeste 0 -- -- 94
2020-08-10 00:00:00 21 2 Sur 5 Nordeste 0 -- -- 92
2020-08-09 23:00:00 21.2 0 Calma 5 Noroeste 0 -- -- 90
2020-08-09 22:00:00 21.3 2 Noroeste 9 Nordeste 0 -- -- 90
2020-08-09 21:00:00 21.8 0 Calma 13 Oeste 0 -- -- 88
2020-08-09 20:00:00 22 7 Oeste 14 Oeste 0 -- -- 86
2020-08-09 19:00:00 22.5 6 Oeste 15 Noroeste 0 -- -- 84
2020-08-09 18:00:00 23.3 8 Oeste 14 Oeste 0 -- -- 82
2020-08-09 17:00:00 24.3 5 Nordeste 22 Nordeste 0 -- -- 80
2020-08-09 16:00:00 26.2 10 Nordeste 27 Nordeste 0 -- -- 75
2020-08-09 15:00:00 28.9 11 Este 23 Nordeste 0 -- -- 68
2020-08-09 14:00:00 27.8 6 Este 14 Este 0 -- -- 71
2020-08-09 13:00:00 26.7 4 Este 13 Nordeste 0 -- -- 74
2020-08-09 12:00:00 25 3 Norte 8 Oeste 0 -- -- 75
2020-08-09 11:00:00 22.3 4 Noroeste 8 Noroeste 0 -- -- 86
2020-08-09 10:00:00 20.9 0 Calma 4 Noroeste 0 -- -- 92
2020-08-09 09:00:00 18.9 0 Calma 4 Oeste 0 -- -- 98
2020-08-09 08:00:00 18.2 0 Calma 5 Sudoeste 0 -- -- 98
2020-08-09 07:00:00 18.1 0 Calma 4 Oeste 0 -- -- 97
2020-08-09 06:00:00 18.5 2 Oeste 5 Oeste 0.2 -- -- 96
2020-08-09 05:00:00 19.2 0 Calma 4 Sur 0 -- -- 96
2020-08-09 04:00:00 19.8 0 Calma 6 Sudoeste 0 -- -- 95
2020-08-09 03:00:00 20.4 4 Sudoeste 18 Noroeste 0 -- -- 93
2020-08-09 02:00:00 20.6 7 Noroeste 19 Oeste 0 -- -- 92
2020-08-09 01:00:00 21.2 6 Sudeste 22 Oeste 0.2 -- -- 89
2020-08-09 00:00:00 21.3 4 Sudeste 25 Este 0.8 -- -- 93
2020-08-08 23:00:00 21.6 3 Sudeste 9 Sur 1.8 -- -- 95
2020-08-08 22:00:00 21.7 4 Sudoeste 15 Este 1.2 -- -- 93
2020-08-08 21:00:00 22.7 4 Sudoeste 15 Nordeste 2.6 -- -- 87
2020-08-08 20:00:00 24.7 4 Nordeste 18 Noroeste 0 -- -- 74
2020-08-08 19:00:00 26.6 5 Noroeste 24 Este 0 -- -- 67
2020-08-08 18:00:00 28.3 10 Este 23 Este 0 -- -- 64
2020-08-08 17:00:00 29.8 8 Este 24 Nordeste 0 -- -- 59
2020-08-08 16:00:00 30.6 12 Este 24 Este 0 -- -- 55
2020-08-08 15:00:00 30.8 10 Este 23 Nordeste 0 -- -- 53
2020-08-08 14:00:00 30.7 8 Este 18 Este 0 -- -- 50
2020-08-08 13:00:00 29.5 7 Nordeste 16 Nordeste 0 -- -- 49
2020-08-08 12:00:00 27.2 6 Este 12 Este 0 -- -- 56
2020-08-08 11:00:00 23.6 0 Calma 4 Noroeste 0 -- -- 72
2020-08-08 10:00:00 19.5 0 Calma 4 Oeste 0 -- -- 87
2020-08-08 09:00:00 16.8 2 Oeste 5 Sudoeste 0 -- -- 97
2020-08-08 08:00:00 15.5 0 Calma 4 Noroeste 0 -- -- 97
2020-08-08 07:00:00 15.4 2 Oeste 5 Oeste 0 -- -- 97
2020-08-08 06:00:00 15.8 0 Calma 4 Oeste 0 -- -- 96
2020-08-08 05:00:00 16.3 0 Calma 2 Noroeste 0 -- -- 96
2020-08-08 04:00:00 16.9 0 Calma 4 Sudoeste 0 -- -- 96
2020-08-08 03:00:00 17.4 0 Calma 5 Oeste 0 -- -- 96
2020-08-08 02:00:00 17.8 0 Calma 4 Oeste 0 -- -- 95
2020-08-08 01:00:00 18.4 0 Calma 8 Oeste 0 -- -- 94
2020-08-08 00:00:00 19.2 0 Calma 4 Oeste 0 -- -- 94
2020-08-07 23:00:00 20.1 2 Sudoeste 5 Oeste 0 -- -- 91
2020-08-07 22:00:00 21.4 0 Calma 8 Sudoeste 0 -- -- 86
2020-08-07 21:00:00 24.4 3 Sudoeste 6 Sudoeste 0 -- -- 80
2020-08-07 20:00:00 27 0 Calma 8 Sudeste 0 -- -- 74
2020-08-07 19:00:00 26.1 3 Sudeste 9 Nordeste 0 -- -- 77
2020-08-07 18:00:00 24.3 3 Este 21 Oeste 0.6 -- -- 88
2020-08-07 17:00:00 23.4 13 Oeste 26 Oeste 1.4 -- -- 83
2020-08-07 16:00:00 28.1 10 Noroeste 25 Noroeste 0 -- -- 63
2020-08-07 15:00:00 29.8 9 Noroeste 22 Noroeste 0 -- -- 58
2020-08-07 14:00:00 29.3 11 Noroeste 22 Noroeste 0 -- -- 62
2020-08-07 13:00:00 29.8 8 Nordeste 16 Nordeste 0 -- -- 62
2020-08-07 12:00:00 27.9 6 Nordeste 12 Nordeste 0 -- -- 68
2020-08-07 11:00:00 25.7 4 Nordeste 9 Nordeste 0 -- -- 75
2020-08-07 10:00:00 22.3 0 Calma 4 Nordeste 0 -- -- 86
2020-08-07 09:00:00 19.7 0 Calma 3 Este 0 -- -- 95
2020-08-07 08:00:00 17.9 0 Calma 3 Oeste 0 -- -- 96
2020-08-07 07:00:00 17.7 0 Calma 3 Sudoeste 0 -- -- 95
2020-08-07 06:00:00 18.2 0 Calma 4 Noroeste 0 -- -- 95
2020-08-07 05:00:00 18.8 0 Calma 3 Oeste 0 -- -- 94
2020-08-07 04:00:00 19.6 0 Calma 6 Sudoeste 0 -- -- 93
2020-08-07 03:00:00 20 3 Este 7 Sudeste 0 -- -- 93
2020-08-07 02:00:00 20.4 0 Calma 4 Oeste 0 -- -- 90
2020-08-07 01:00:00 21.4 0 Calma 3 Oeste 0 -- -- 87
2020-08-07 00:00:00 22.5 0 Calma 4 Oeste 0 -- -- 84
2020-08-06 23:00:00 24.2 0 Calma 5 Sudeste 0 -- -- 77
2020-08-06 22:00:00 26.8 0 Calma 7 Este 0 -- -- 68
2020-08-06 21:00:00 30.8 2 Este 12 Nordeste 0 -- -- 54
2020-08-06 20:00:00 34.4 5 Este 13 Este 0 -- -- 45
2020-08-06 19:00:00 35.2 6 Este 20 Nordeste 0 -- -- 44
2020-08-06 18:00:00 36.5 9 Este 20 Este 0 -- -- 40
2020-08-06 17:00:00 37.6 8 Este 21 Nordeste 0 -- -- 38
2020-08-06 16:00:00 38.3 8 Este 19 Este 0 -- -- 36
2020-08-06 15:00:00 36.8 8 Este 17 Nordeste 0 -- -- 36
2020-08-06 14:00:00 34.7 7 Nordeste 16 Nordeste 0 -- -- 38
2020-08-06 13:00:00 31.1 2 Norte 8 Nordeste 0 -- -- 44
2020-08-06 12:00:00 27.4 3 Este 6 Sudeste 0 -- -- 52
2020-08-06 11:00:00 22.2 0 Calma 3 Norte 0 -- -- 62
2020-08-06 10:00:00 17 0 Calma 4 Oeste 0 -- -- 87
2020-08-06 09:00:00 14.1 0 Calma 3 Noroeste 0 -- -- 97
2020-08-06 08:00:00 12.7 0 Calma 3 Oeste 0 -- -- 98
2020-08-06 07:00:00 12.3 0 Calma 2 Sudoeste 0 -- -- 96
2020-08-06 06:00:00 13 0 Calma 2 Oeste 0 -- -- 96
2020-08-06 05:00:00 13.5 0 Calma 3 Oeste 0 -- -- 95
2020-08-06 04:00:00 14.2 0 Calma 3 Oeste 0 -- -- 95
2020-08-06 03:00:00 14.8 0 Calma 4 Oeste 0 -- -- 94
2020-08-06 02:00:00 15.5 0 Calma 3 Noroeste 0 -- -- 93
2020-08-06 01:00:00 16.3 0 Calma 2 Sur 0 -- -- 91
2020-08-06 00:00:00 17.5 0 Calma 2 Oeste 0 -- -- 87
2020-08-05 23:00:00 19.2 0 Calma 4 Sudoeste 0 -- -- 81
2020-08-05 22:00:00 22 0 Calma 10 Este 0 -- -- 72
2020-08-05 21:00:00 25.9 4 Este 17 Este 0 -- -- 60
2020-08-05 20:00:00 28.3 6 Este 19 Este 0 -- -- 55
2020-08-05 19:00:00 29.8 7 Este 22 Este 0 -- -- 52
2020-08-05 18:00:00 30.6 11 Este 23 Nordeste 0 -- -- 44
2020-08-05 17:00:00 31.1 12 Este 26 Nordeste 0 -- -- 48
2020-08-05 16:00:00 31.9 10 Este 22 Este 0 -- -- 45
2020-08-05 15:00:00 31.6 5 Nordeste 17 Sudeste 0 -- -- 35
2020-08-05 14:00:00 29.8 4 Nordeste 12 Nordeste 0 -- -- 38
2020-08-05 13:00:00 27.9 3 Sudeste 7 Noroeste 0 -- -- 41
2020-08-05 12:00:00 24.7 2 Nordeste 5 Nordeste 0 -- -- 54
2020-08-05 11:00:00 20.3 0 Calma 5 Noroeste 0 -- -- 70
2020-08-05 10:00:00 15.2 0 Calma 4 Noroeste 0 -- -- 98
2020-08-05 09:00:00 13.1 0 Calma 4 Oeste 0 -- -- 99
2020-08-05 08:00:00 12.4 0 Calma 3 Sudoeste 0 -- -- 99
2020-08-05 07:00:00 12 0 Calma 6 Oeste 0 -- -- 98
2020-08-05 06:00:00 11.7 0 Calma 4 Sudoeste 0 -- -- 97
2020-08-05 05:00:00 12.3 2 Oeste 4 Oeste 0 -- -- 97
2020-08-05 04:00:00 12.9 0 Calma 3 Oeste 0 -- -- 96
2020-08-05 03:00:00 13.5 0 Calma 4 Sudoeste 0 -- -- 95
2020-08-05 02:00:00 14.2 0 Calma 3 Sudoeste 0 -- -- 95
2020-08-05 01:00:00 15 0 Calma 5 Sudoeste 0 -- -- 93
2020-08-05 00:00:00 16.1 0 Calma 4 Oeste 0 -- -- 91
2020-08-04 23:00:00 17.5 0 Calma 3 Oeste 0 -- -- 87
2020-08-04 22:00:00 19.8 0 Calma 4 Sudeste 0 -- -- 80
2020-08-04 21:00:00 24.1 0 Calma 8 Este 0 -- -- 65
2020-08-04 20:00:00 25.4 4 Este 18 Nordeste 0 -- -- 61
2020-08-04 19:00:00 26 8 Nordeste -- -- -- -- -- 58
2020-08-04 18:00:00 -- 7 Nordeste 21 Nordeste 0 -- -- --
2020-08-04 17:00:00 25.7 6 Norte 20 Este 0 -- -- 59
2020-08-04 16:00:00 26.7 5 Este 13 Nordeste 0 -- -- 56
2020-08-04 15:00:00 24.3 5 Nordeste 14 Nordeste 0 -- -- 63
2020-08-04 14:00:00 24.9 8 Nordeste 15 Nordeste 0 -- -- 60
2020-08-04 13:00:00 22.8 4 Este 11 Este 0 -- -- 70
2020-08-04 12:00:00 22 3 Nordeste 8 Nordeste 0 -- -- 69
2020-08-04 11:00:00 19.8 0 Calma 5 Sur 0 -- -- 76
2020-08-04 10:00:00 17.6 0 Calma 3 Oeste 0 -- -- 84
2020-08-04 09:00:00 16 0 Calma 5 Noroeste 0 -- -- 91
2020-08-04 08:00:00 15.1 3 Oeste 5 Oeste 0 -- -- 96
2020-08-04 07:00:00 14.8 0 Calma 4 Oeste 0 -- -- 96
2020-08-04 06:00:00 14.7 2 Oeste 4 Oeste 0 -- -- 96
2020-08-04 05:00:00 14.4 0 Calma 5 Oeste 0 -- -- 97
2020-08-04 04:00:00 13.8 0 Calma 4 Sudoeste 0 -- -- 97
2020-08-04 03:00:00 13.2 0 Calma 3 Oeste 0 -- -- 96
2020-08-04 02:00:00 13.7 0 Calma 4 Oeste 0 -- -- 94
2020-08-04 01:00:00 14.5 0 Calma 3 Oeste 0 -- -- 93
2020-08-04 00:00:00 15.4 2 Sur 3 Sur 0 -- -- 91
2020-08-03 23:00:00 16.8 0 Calma 3 Oeste 0 -- -- 88
2020-08-03 22:00:00 18.3 0 Calma 9 Nordeste 0 -- -- 80
2020-08-03 21:00:00 20.8 3 Nordeste 18 Nordeste 0 -- -- 67
2020-08-03 20:00:00 22 8 Nordeste 24 Este 0 -- -- 64
2020-08-03 19:00:00 23.8 9 Este 20 Nordeste 0 -- -- 59
2020-08-03 18:00:00 25.2 7 Este 23 Este 0 -- -- 57
2020-08-03 17:00:00 25.7 8 Este 31 Este 0 -- -- 58
2020-08-03 16:00:00 23.9 8 Nordeste 19 Nordeste 0 -- -- 61
2020-08-03 15:00:00 23 5 Este 23 Este 0 -- -- 65
2020-08-03 14:00:00 23.4 9 Este 23 Este 0 -- -- 62
2020-08-03 13:00:00 24.8 7 Este 17 Nordeste 0 -- -- 56
2020-08-03 12:00:00 23.2 5 Este 13 Nordeste 0 -- -- 61
2020-08-03 11:00:00 20.9 2 Nordeste 6 Norte 0 -- -- 75
2020-08-03 10:00:00 18.6 0 Calma 5 Nordeste 0 -- -- 84
2020-08-03 09:00:00 16.1 0 Calma 4 Noroeste 0 -- -- 97
2020-08-03 08:00:00 15.4 0 Calma 4 Sudoeste 0 -- -- 98
2020-08-03 07:00:00 15.6 0 Calma 4 Sudoeste 0 -- -- 97
2020-08-03 06:00:00 16.1 3 Oeste 4 Oeste 0 -- -- 97
2020-08-03 05:00:00 16.1 2 Sudoeste 4 Sudoeste 0 -- -- 97
2020-08-03 04:00:00 16.5 0 Calma 3 Nordeste 0 -- -- 97
2020-08-03 03:00:00 16.6 0 Calma 3 Noroeste 0 -- -- 96
2020-08-03 02:00:00 16.9 2 Sudoeste 5 Oeste 0 -- -- 96
2020-08-03 01:00:00 17.3 0 Calma 3 Sur 0 -- -- 95
2020-08-03 00:00:00 17.6 0 Calma 3 Oeste 0 -- -- 94
2020-08-02 23:00:00 18.1 0 Calma 4 Sur 0 -- -- 92
2020-08-02 22:00:00 18.8 2 Este 9 Nordeste 0 -- -- 87
2020-08-02 21:00:00 19.5 2 Noroeste 12 Noroeste 0 -- -- 82
2020-08-02 20:00:00 20.1 3 Noroeste 15 Oeste 0 -- -- 81
2020-08-02 19:00:00 20.9 3 Noroeste 9 Noroeste 0 -- -- 80
2020-08-02 18:00:00 21.2 2 Sudeste 6 Sudeste 0 -- -- 78
2020-08-02 17:00:00 20.9 3 Sudeste 9 Oeste 0 -- -- 84
2020-08-02 16:00:00 20.4 3 Noroeste 8 Oeste 0 -- -- 84
2020-08-02 15:00:00 18.8 2 Sur 9 Nordeste 0.4 -- -- 89
2020-08-02 14:00:00 18.9 0 Calma 5 Sudeste 0.4 -- -- 92
2020-08-02 13:00:00 18.5 2 Norte 14 Oeste 1 -- -- 91
2020-08-02 12:00:00 19.1 4 Noroeste 11 Noroeste 0 -- -- 88
2020-08-02 11:00:00 18.5 4 Oeste 10 Oeste 0 -- -- 92
2020-08-02 10:00:00 17.4 4 Oeste 8 Oeste 0.6 -- -- 95
2020-08-02 09:00:00 17.1 0 Calma 3 Sudoeste 0 -- -- 96
2020-08-02 08:00:00 16.8 0 Calma 10 Oeste 0.2 -- -- 97
2020-08-02 07:00:00 17 3 Oeste 8 Sudoeste 0.2 -- -- 97
2020-08-02 06:00:00 17.2 0 Calma 5 Oeste 0 -- -- 97
2020-08-02 05:00:00 17.2 2 Sudoeste 7 Sudoeste 0.6 -- -- 96
2020-08-02 04:00:00 17.4 3 Sudoeste 6 Oeste 0.2 -- -- 96
2020-08-02 03:00:00 17.5 0 Calma 4 Sudoeste 0.4 -- -- 97
2020-08-02 02:00:00 17.6 0 Calma 5 Oeste 0.4 -- -- 96
2020-08-02 01:00:00 17.7 2 Sudoeste 4 Sudoeste 0 -- -- 95
2020-08-02 00:00:00 18 2 Sudoeste 9 Oeste 0 -- -- 94
2020-08-01 23:00:00 18.1 2 Sudeste 7 Oeste 0 -- -- 95
2020-08-01 22:00:00 18.5 4 Sudoeste 8 Oeste 0.4 -- -- 93
2020-08-01 21:00:00 19.1 0 Calma 5 Sur 3.6 -- -- 95
2020-08-01 20:00:00 19.8 0 Calma 8 Noroeste 0.6 -- -- 91
2020-08-01 19:00:00 20.2 3 Oeste 13 Oeste 0 -- -- 85
2020-08-01 18:00:00 20.7 8 Oeste 18 Noroeste 0 -- -- 83
2020-08-01 17:00:00 21.8 5 Oeste 17 Oeste 0 -- -- 81
2020-08-01 16:00:00 21.4 2 Noroeste 22 Norte 0 -- -- 86
2020-08-01 15:00:00 22.9 8 Oeste 21 Oeste 0 -- -- 75
2020-08-01 14:00:00 23.9 2 Noroeste 14 Nordeste 0 -- -- 68
2020-08-01 13:00:00 24.8 6 Nordeste 13 Este 0 -- -- 67
2020-08-01 12:00:00 22.8 2 Este 5 Nordeste 0 -- -- 72
2020-08-01 11:00:00 21.1 0 Calma 3 Oeste 0 -- -- 79
2020-08-01 10:00:00 19.8 0 Calma 4 Oeste 0 -- -- 83
2020-08-01 09:00:00 17.2 0 Calma 3 Oeste 0 -- -- 96
2020-08-01 08:00:00 15.8 0 Calma 3 Oeste 0 -- -- 96
2020-08-01 07:00:00 15.9 0 Calma 5 Noroeste 0 -- -- 96
2020-08-01 06:00:00 16.5 3 Oeste 5 Sudoeste 0 -- -- 95
2020-08-01 05:00:00 17.5 0 Calma 4 Noroeste 0 -- -- 94
2020-08-01 04:00:00 18.3 2 Oeste 5 Oeste 0 -- -- 93
2020-08-01 03:00:00 19.5 0 Calma 5 Sur 0 -- -- 90
2020-08-01 02:00:00 20.3 0 Calma 4 Oeste 0 -- -- 92
2020-08-01 01:00:00 20.4 0 Calma 6 Nordeste 0 -- -- 92
2020-08-01 00:00:00 20.5 2 Este 7 Nordeste 0 -- -- 92
2020-07-31 23:00:00 20.6 3 Nordeste 8 Este 0 -- -- 93
2020-07-31 22:00:00 20.9 2 Nordeste 5 Nordeste 0 -- -- 92
2020-07-31 21:00:00 21.2 0 Calma 5 Este 0 -- -- 91
2020-07-31 20:00:00 21.7 2 Nordeste 10 Nordeste 0 -- -- 89
2020-07-31 19:00:00 22.7 4 Este 16 Este 0 -- -- 83
2020-07-31 18:00:00 24 7 Este 20 Este 0 -- -- 77
2020-07-31 17:00:00 25.7 9 Este 24 Este 0 -- -- 72
2020-07-31 16:00:00 28.1 10 Este 25 Nordeste 0 -- -- 66
2020-07-31 15:00:00 28.3 10 Nordeste 22 Nordeste 0 -- -- 63
2020-07-31 14:00:00 29.3 10 Nordeste 25 Este 0 -- -- 59
2020-07-31 13:00:00 28.9 8 Este 19 Este 0 -- -- 62
2020-07-31 12:00:00 27.5 7 Este 15 Nordeste 0 -- -- 65
2020-07-31 11:00:00 25.7 3 Este 10 Nordeste 0 -- -- 69
2020-07-31 10:00:00 22.3 3 Este 8 Este 0 -- -- 78
2020-07-31 09:00:00 19.7 0 Calma 3 Sudoeste 0 -- -- 86
2020-07-31 08:00:00 18 0 Calma 5 Oeste 0 -- -- 93
2020-07-31 07:00:00 17.8 0 Calma 5 Oeste 0 -- -- 92
2020-07-31 06:00:00 18.5 0 Calma 4 Oeste 0 -- -- 90
2020-07-31 05:00:00 19.4 2 Oeste 6 Sudoeste 0 -- -- 87
2020-07-31 04:00:00 20.6 3 Norte 5 Sudeste 0 -- -- 83
2020-07-31 03:00:00 21.5 0 Calma 3 Sur 0 -- -- 81
2020-07-31 02:00:00 23.2 2 Oeste 6 Este 0 -- -- 73
2020-07-31 01:00:00 25.4 0 Calma 13 Nordeste 0 -- -- 64
2020-07-31 00:00:00 26.9 3 Sudoeste 21 Oeste 0 -- -- 52
2020-07-30 23:00:00 29.9 6 Sudoeste 35 Sur 0 -- -- 43
2020-07-30 22:00:00 32.6 12 Sur 36 Sudoeste 0 -- -- 32
2020-07-30 21:00:00 32.6 8 Sudoeste 23 Sudeste 0 -- -- 31
2020-07-30 20:00:00 32.5 5 Sur 23 Sur 0 -- -- 34
2020-07-30 19:00:00 34.8 11 Sur 27 Sur 0 -- -- 28
2020-07-30 18:00:00 35.4 12 Este 30 Este 0 -- -- 28
2020-07-30 17:00:00 39.7 9 Sur 39 Sur 0 -- -- 25
2020-07-30 16:00:00 40.1 12 Sudeste 33 Este 0 -- -- 29
2020-07-30 15:00:00 39.8 8 Nordeste 23 Sudoeste 0 -- -- 31
2020-07-30 14:00:00 38.6 5 Sudeste 21 Sudoeste 0 -- -- 34
2020-07-30 13:00:00 37 7 Sur 30 Sudeste 0 -- -- 36
2020-07-30 12:00:00 33.9 7 Sudeste 22 Sudeste 0 -- -- 43
2020-07-30 11:00:00 25.6 2 Norte 9 Oeste 0 -- -- 73
2020-07-30 10:00:00 21.4 0 Calma 6 Oeste 0 -- -- 85
2020-07-30 09:00:00 19.5 3 Oeste 6 Oeste 0 -- -- 91
2020-07-30 08:00:00 18.2 0 Calma 3 Oeste 0 -- -- 95
2020-07-30 07:00:00 18.1 0 Calma 4 Oeste 0 -- -- 93
2020-07-30 06:00:00 18.4 0 Calma 5 Oeste 0 -- -- 94
2020-07-30 05:00:00 18.4 0 Calma 3 Nordeste 0 -- -- 94
2020-07-30 04:00:00 18.6 0 Calma 3 Oeste 0 -- -- 93
2020-07-30 03:00:00 19.1 0 Calma 2 Oeste 0 -- -- 92
2020-07-30 02:00:00 19.2 0 Calma 4 Sudoeste 0 -- -- 91
2020-07-30 01:00:00 19.6 0 Calma 2 Oeste 0 -- -- 90
2020-07-30 00:00:00 20 0 Calma 2 Oeste 0 -- -- 88
2020-07-29 23:00:00 20.4 0 Calma 5 Sudeste 0 -- -- 86
2020-07-29 22:00:00 20.9 0 Calma 9 Este 0 -- -- 82
2020-07-29 21:00:00 21.7 2 Este 10 Este 0 -- -- 79
2020-07-29 20:00:00 22.5 3 Este 9 Nordeste 0 -- -- 78
2020-07-29 19:00:00 22.8 4 Nordeste 11 Nordeste 0 -- -- 76
2020-07-29 18:00:00 23.5 5 Nordeste 9 Este 0 -- -- 73
2020-07-29 17:00:00 23.4 2 Noroeste 6 Oeste 0 -- -- 73
2020-07-29 16:00:00 23 2 Oeste 7 Sudeste 0 -- -- 73
2020-07-29 15:00:00 22.5 4 Nordeste 16 Nordeste 0 -- -- 75
2020-07-29 14:00:00 22.1 7 Nordeste 18 Nordeste 0 -- -- 75
2020-07-29 13:00:00 23.2 10 Este 24 Este 0 -- -- 73
2020-07-29 12:00:00 23.2 6 Este 15 Nordeste 0 -- -- 76
2020-07-29 11:00:00 21.8 4 Este 10 Este 0 -- -- 82
2020-07-29 10:00:00 19.7 3 Este 6 Nordeste 0 -- -- 91
2020-07-29 09:00:00 18.3 0 Calma -- -- 0.2 -- -- 97
2020-07-29 08:00:00 17.9 0 Calma 4 Sur 0 -- -- 97
2020-07-29 07:00:00 18 0 Calma 0 Calma 0 -- -- 97
2020-07-29 06:00:00 18.2 0 Calma -- -- 0 -- -- 97
2020-07-29 05:00:00 18.2 0 Calma -- -- 0 -- -- 97
2020-07-29 04:00:00 18.3 0 Calma 0 Calma 0 -- -- 97
2020-07-29 03:00:00 18.4 0 Calma 0 Calma 0.2 -- -- 97
2020-07-29 02:00:00 18.5 0 Calma 0 Calma 0 -- -- 97
2020-07-29 01:00:00 18.6 0 Calma 0 Calma 0 -- -- 96
2020-07-29 00:00:00 18.7 0 Calma 5 Norte 0 -- -- 96
2020-07-28 23:00:00 18.9 0 Calma 6 Sudoeste 0 -- -- 96
2020-07-28 22:00:00 19.1 3 Sur 9 Sudoeste 0.2 -- -- 94
2020-07-28 21:00:00 19.7 2 Oeste 6 Oeste 0.2 -- -- 93
2020-07-28 20:00:00 20 3 Oeste 8 Nordeste 0 -- -- 92
2020-07-28 19:00:00 20.6 0 Calma 13 Norte 0.2 -- -- 91
2020-07-28 18:00:00 21.3 3 Sudeste 12 Norte 0 -- -- 89
2020-07-28 17:00:00 21.5 4 Norte 16 Nordeste 0 -- -- 86
2020-07-28 16:00:00 22 4 Norte 17 Este 0.4 -- -- 86
2020-07-28 15:00:00 23.2 4 Nordeste 18 Este 0 -- -- 83
2020-07-28 14:00:00 24.5 9 Este 18 Nordeste 0 -- -- 74
2020-07-28 13:00:00 24.5 6 Nordeste 14 Nordeste 0 -- -- 72
2020-07-28 12:00:00 23.5 5 Este 11 Este 0 -- -- 74
2020-07-28 11:00:00 21.2 0 Calma 0 Calma 0 -- -- 81
2020-07-28 10:00:00 19.6 0 Calma 0 Calma 0 -- -- 88
2020-07-28 09:00:00 18.4 0 Calma 0 Calma 0 -- -- 92
2020-07-28 08:00:00 17.8 0 Calma 0 Calma 0 -- -- 94
2020-07-28 07:00:00 17.4 0 Calma 0 Calma 0 -- -- 95
2020-07-28 06:00:00 17.2 0 Calma 0 Calma 0 -- -- 95
2020-07-28 05:00:00 17 0 Calma 0 Calma 0 -- -- 96
2020-07-28 04:00:00 16.7 0 Calma 0 Calma 0 -- -- 95
2020-07-28 03:00:00 17.1 0 Calma 0 Calma 0 -- -- 94
2020-07-28 02:00:00 17.4 0 Calma 4 Sudoeste 0 -- -- 94
2020-07-28 01:00:00 18.1 0 Calma 5 Noroeste 0 -- -- 93
2020-07-28 00:00:00 19 0 Calma 2 Oeste 0 -- -- 90
2020-07-27 23:00:00 20.3 0 Calma 5 Este 0 -- -- 86
2020-07-27 22:00:00 21.9 0 Calma 10 Este 0 -- -- 80
2020-07-27 21:00:00 24.2 5 Este 17 Nordeste 0 -- -- 71
2020-07-27 20:00:00 24.7 7 Este 15 Nordeste 0 -- -- 65
2020-07-27 19:00:00 25.8 5 Oeste 16 Oeste 0 -- -- 55
2020-07-27 18:00:00 26.6 8 Oeste 19 Oeste 0 -- -- 58
2020-07-27 17:00:00 27 10 Noroeste 26 Oeste 0 -- -- 62
2020-07-27 16:00:00 29.8 7 Norte 24 Este 0 -- -- 59
2020-07-27 15:00:00 30.2 10 Nordeste 21 Nordeste 0 -- -- 58
2020-07-27 14:00:00 30.3 8 Este 21 Nordeste 0 -- -- 57
2020-07-27 13:00:00 29 7 Nordeste 15 Nordeste 0 -- -- 57
2020-07-27 12:00:00 27.2 6 Nordeste 12 Norte 0 -- -- 65
2020-07-27 09:00:00 -- -- -- -- -- -- -- -- --
2020-07-27 08:00:00 15.8 3 Sudoeste 5 Oeste 0 -- -- 98
2020-07-27 07:00:00 15.4 0 Calma 0 Calma 0 -- -- 97
2020-07-27 06:00:00 15.8 0 Calma 0 Calma 0 -- -- 96
2020-07-27 05:00:00 16.3 0 Calma 0 Calma 0 -- -- 95
2020-07-27 04:00:00 17 0 Calma 4 Oeste 0 -- -- 94
2020-07-27 03:00:00 18 0 Calma 2 Sudoeste 0 -- -- 92
2020-07-27 02:00:00 19.3 0 Calma 0 Calma 0 -- -- 90
2020-07-27 01:00:00 20 0 Calma 3 Oeste 0 -- -- 89
2020-07-27 00:00:00 20.8 0 Calma 3 Sudeste 0 -- -- 86
2020-07-26 23:00:00 21.7 0 Calma 8 Sudeste 0 -- -- 81
2020-07-26 22:00:00 22.4 2 Este 10 Este 0 -- -- 77
2020-07-26 21:00:00 23.3 3 Este 8 Este 0 -- -- 75
2020-07-26 20:00:00 23.8 3 Este 9 Norte 0 -- -- 74
2020-07-26 19:00:00 23.9 4 Nordeste 10 Nordeste 0 -- -- 73
2020-07-26 18:00:00 24 4 Nordeste 13 Este 0 -- -- 74
2020-07-26 17:00:00 24.1 6 Nordeste 13 Nordeste 0 -- -- 73
2020-07-26 16:00:00 24.6 7 Nordeste 16 Este 0 -- -- 71
2020-07-26 15:00:00 26 7 Nordeste 19 Norte 0 -- -- 67
2020-07-26 14:00:00 26.6 6 Nordeste 19 Nordeste 0 -- -- 61
2020-07-26 13:00:00 27.1 4 Nordeste 15 Nordeste 0 -- -- 61
2020-07-26 12:00:00 25.4 5 Este 12 Nordeste 0 -- -- 62
2020-07-26 11:00:00 23.5 3 Oeste 5 Noroeste 0 -- -- 69
2020-07-26 10:00:00 20.8 3 Nordeste 6 Nordeste 0 -- -- 78
2020-07-26 09:00:00 17.8 0 Calma 4 Noroeste 0 -- -- 92
2020-07-26 08:00:00 16.4 2 Oeste 5 Oeste 0 -- -- 97
2020-07-26 07:00:00 15.8 0 Calma 4 Oeste 0 -- -- 97
2020-07-26 06:00:00 15.1 0 Calma 3 Oeste 0 -- -- 97
2020-07-26 05:00:00 15.3 0 Calma 4 Oeste 0 -- -- 95
2020-07-26 04:00:00 16.1 0 Calma 3 Sudoeste 0 -- -- 96
2020-07-26 03:00:00 15.7 0 Calma 4 Oeste 0 -- -- 96
2020-07-26 02:00:00 15.7 0 Calma 3 Sudoeste 0 -- -- 94
2020-07-26 01:00:00 16.4 0 Calma 2 Oeste 0 -- -- 93
2020-07-26 00:00:00 17.2 0 Calma 3 Sur 0 -- -- 91
2020-07-25 23:00:00 18.5 0 Calma 4 Sur 0 -- -- 87
2020-07-25 22:00:00 20.9 2 Sudeste 10 Este 0 -- -- 78
2020-07-25 21:00:00 22.2 3 Este 15 Nordeste 0 -- -- 73
2020-07-25 20:00:00 23.6 6 Este 22 Nordeste 0 -- -- 68
2020-07-25 19:00:00 25.2 9 Este 22 Este 0 -- -- 61
2020-07-25 18:00:00 26.1 6 Nordeste 17 Nordeste 0 -- -- 58
2020-07-25 17:00:00 25.4 7 Nordeste 27 Nordeste 0 -- -- 59
2020-07-25 16:00:00 27.9 10 Este 23 Este 0 -- -- 53
2020-07-25 15:00:00 26.9 8 Nordeste 19 Nordeste 0 -- -- 56
2020-07-25 14:00:00 26.7 9 Este 23 Nordeste 0 -- -- 58
2020-07-25 13:00:00 26.1 4 Este 10 Nordeste 0 -- -- 56
2020-07-25 12:00:00 24.6 4 Este 11 Este 0 -- -- 60
2020-07-25 11:00:00 21.4 3 Oeste 6 Oeste 0 -- -- 71
2020-07-25 10:00:00 16.5 0 Calma 4 Nordeste 0 -- -- 90
2020-07-25 09:00:00 14.3 0 Calma 5 Oeste 0 -- -- 98
2020-07-25 08:00:00 13.1 0 Calma 4 Oeste 0 -- -- 98
2020-07-25 07:00:00 12.4 2 Oeste 4 Oeste 0 -- -- 97
2020-07-25 06:00:00 12.7 0 Calma 4 Oeste 0 -- -- 96
2020-07-25 05:00:00 13.2 3 Oeste 4 Oeste 0 -- -- 96
2020-07-25 04:00:00 13.7 0 Calma 3 Sudoeste 0 -- -- 95
2020-07-25 03:00:00 14.4 0 Calma 3 Sudoeste 0 -- -- 94
2020-07-25 02:00:00 15.3 0 Calma 4 Oeste 0 -- -- 92
2020-07-25 01:00:00 16.6 0 Calma 3 Sudoeste 0 -- -- 89
2020-07-25 00:00:00 18.4 0 Calma 3 Sur 0 -- -- 84
2020-07-24 23:00:00 19.5 0 Calma 5 Nordeste 0 -- -- 81
2020-07-24 22:00:00 20.1 0 Calma 9 Este 0 -- -- 78
2020-07-24 21:00:00 20.9 3 Este 16 Este 0 -- -- 73
2020-07-24 20:00:00 22 5 Este 19 Este 0 -- -- 69
2020-07-24 19:00:00 24.4 7 Este 21 Nordeste 0 -- -- 62
2020-07-24 18:00:00 24.4 10 Nordeste 18 Nordeste 0 -- -- 63
2020-07-24 17:00:00 23.9 5 Nordeste 15 Este 0 -- -- 66
2020-07-24 16:00:00 23.2 6 Nordeste 16 Nordeste 0 -- -- 67
2020-07-24 15:00:00 23.2 4 Nordeste 14 Noroeste 0 -- -- 69
2020-07-24 14:00:00 22.2 7 Oeste 19 Oeste 0 -- -- 69
2020-07-24 13:00:00 22.6 0 Calma 12 Nordeste 0 -- -- 72
2020-07-24 12:00:00 22.1 3 Nordeste 10 Oeste 0 -- -- 73
2020-07-24 11:00:00 21.2 5 Noroeste 10 Oeste 0 -- -- 78
2020-07-24 10:00:00 19.8 0 Calma 2 Oeste 0 -- -- 92
2020-07-24 09:00:00 18.6 0 Calma 3 Oeste 0 -- -- 97
2020-07-24 08:00:00 18.3 0 Calma 4 Oeste 0 -- -- 97
2020-07-24 07:00:00 18.2 0 Calma 2 Noroeste 0 -- -- 97
2020-07-24 06:00:00 18.1 0 Calma 2 Oeste 0 -- -- 97
2020-07-24 05:00:00 18 0 Calma 2 Noroeste 0 -- -- 97
2020-07-24 04:00:00 17.9 0 Calma 0 Calma 0 -- -- 96
2020-07-24 03:00:00 18.2 0 Calma 3 Sur 0 -- -- 95
2020-07-24 02:00:00 19 0 Calma 4 Sur 0 -- -- 96
2020-07-24 01:00:00 19.5 2 Sur 5 Sur 0 -- -- 93
2020-07-24 00:00:00 20.1 0 Calma 3 Este 0 -- -- 93
2020-07-23 23:00:00 20.5 0 Calma 4 Oeste 0 -- -- 92
2020-07-23 22:00:00 21.1 3 Noroeste 10 Noroeste 0 -- -- 87
2020-07-23 21:00:00 21.4 3 Oeste 7 Noroeste 0 -- -- 86
2020-07-23 20:00:00 21.5 4 Noroeste 12 Noroeste 0 -- -- 85
2020-07-23 19:00:00 22.4 6 Noroeste 15 Oeste 0 -- -- 80
2020-07-23 18:00:00 23.5 7 Noroeste 15 Noroeste 0 -- -- 76
2020-07-23 17:00:00 24.6 5 Nordeste 14 Nordeste 0 -- -- 74
2020-07-23 16:00:00 25.2 5 Nordeste 11 Nordeste 0 -- -- 71
2020-07-23 15:00:00 25.9 5 Oeste 11 Oeste 0 -- -- 68
2020-07-23 14:00:00 25.3 5 Noroeste 11 Oeste 0 -- -- 68
2020-07-23 13:00:00 24.6 4 Noroeste 17 Nordeste 0 -- -- 70
2020-07-23 12:00:00 25.5 5 Nordeste 12 Nordeste 0 -- -- 70
2020-07-23 11:00:00 23.5 0 Calma 6 Norte 0 -- -- 75
2020-07-23 10:00:00 20.6 0 Calma 10 Noroeste 0 -- -- 89
2020-07-23 09:00:00 19.4 0 Calma 6 Noroeste 0.2 -- -- 97
2020-07-23 08:00:00 18.6 4 Oeste 6 Sudoeste 0 -- -- 98
2020-07-23 07:00:00 18.3 0 Calma 0 Calma 0 -- -- 97
2020-07-23 06:00:00 18.8 0 Calma 0 Calma 0 -- -- 97
2020-07-23 05:00:00 19.2 0 Calma 0 Calma 0 -- -- 98
2020-07-23 04:00:00 19.1 0 Calma 0 Calma 0 -- -- 98
2020-07-23 03:00:00 18.8 0 Calma 0 Calma 0 -- -- 98
2020-07-23 02:00:00 18.6 0 Calma 0 Calma 0 -- -- 97
2020-07-23 01:00:00 18.5 0 Calma 3 Oeste 0 -- -- 96
2020-07-23 00:00:00 19.1 0 Calma 3 Sur 0 -- -- 95
2020-07-22 23:00:00 20.1 0 Calma 3 Oeste 0 -- -- 95
2020-07-22 22:00:00 20.5 0 Calma 2 Norte 0.2 -- -- 95
2020-07-22 21:00:00 20.9 0 Calma 5 Sudeste 0.6 -- -- 93
2020-07-22 20:00:00 21.2 0 Calma 8 Este 0 -- -- 91
2020-07-22 19:00:00 21.8 5 Este 12 Nordeste 0 -- -- 86
2020-07-22 18:00:00 22.4 5 Nordeste 17 Este 0 -- -- 84
2020-07-22 17:00:00 23.4 5 Este 16 Este 0 -- -- 80
2020-07-22 16:00:00 24.2 7 Nordeste 16 Este 0 -- -- 78
2020-07-22 15:00:00 25.3 5 Nordeste 22 Este 0 -- -- 74
2020-07-22 14:00:00 26.5 8 Este 22 Este 0 -- -- 71
2020-07-22 13:00:00 27.5 9 Nordeste 23 Nordeste 0 -- -- 67
2020-07-22 12:00:00 27.1 6 Este 15 Nordeste 0 -- -- 68
2020-07-22 11:00:00 24 7 Nordeste 13 Nordeste 0 -- -- 75
2020-07-22 10:00:00 21.2 0 Calma 8 Nordeste 0 -- -- 86
2020-07-22 09:00:00 19.3 3 Oeste 4 Noroeste 0 -- -- 93
2020-07-22 08:00:00 18.4 0 Calma 4 Oeste 0 -- -- 95
2020-07-22 07:00:00 18.4 0 Calma 4 Oeste 0 -- -- 95
2020-07-22 06:00:00 18.2 0 Calma 4 Oeste 0 -- -- 95
2020-07-22 05:00:00 18.2 0 Calma 4 Noroeste 0 -- -- 94
2020-07-22 04:00:00 18.6 0 Calma 4 Sudeste 0 -- -- 93
2020-07-22 03:00:00 19 4 Oeste 11 Oeste 0 -- -- 91
2020-07-22 02:00:00 18.9 0 Calma 5 Sudoeste 0 -- -- 92
2020-07-22 01:00:00 19.7 2 Sur 12 Sudeste 0 -- -- 88
2020-07-22 00:00:00 19.4 0 Calma 6 Sudeste 0 -- -- 91
2020-07-21 23:00:00 19.7 0 Calma 5 Sudeste 0 -- -- 91
2020-07-21 22:00:00 20.5 2 Sudeste 8 Nordeste 0 -- -- 86
2020-07-21 21:00:00 21.4 3 Sudeste 14 Oeste 0 -- -- 78
2020-07-21 20:00:00 21.8 5 Noroeste 13 Oeste 0 -- -- 77
2020-07-21 19:00:00 22.6 2 Nordeste 14 Este 0 -- -- 76
2020-07-21 18:00:00 23.3 4 Este 13 Nordeste 0 -- -- 74
2020-07-21 17:00:00 23.9 6 Nordeste 14 Este 0 -- -- 72
2020-07-21 16:00:00 24.6 4 Nordeste 13 Norte 0 -- -- 68
2020-07-21 15:00:00 24.9 4 Norte 13 Noroeste 0 -- -- 65
2020-07-21 14:00:00 24.9 5 Norte 18 Noroeste 0 -- -- 63
2020-07-21 13:00:00 26.8 6 Nordeste 14 Nordeste 0 -- -- 55
2020-07-21 12:00:00 25.1 3 Sur 10 Este 0 -- -- 55
2020-07-21 11:00:00 23.1 3 Norte 6 Noroeste 0 -- -- 66
2020-07-21 10:00:00 20 0 Calma 4 Oeste 0 -- -- 79
2020-07-21 09:00:00 18 0 Calma 0 Calma 0 -- -- 91
2020-07-21 08:00:00 16.7 0 Calma 0 Calma 0 -- -- 95
2020-07-21 07:00:00 16.6 0 Calma 0 Calma 0 -- -- 94
2020-07-21 06:00:00 17.7 0 Calma 0 Calma 0 -- -- 93
2020-07-21 05:00:00 18.3 0 Calma 0 Calma 0 -- -- 93
2020-07-21 04:00:00 18.5 0 Calma 0 Calma 0 -- -- 93
2020-07-21 03:00:00 18.6 0 Calma 0 Calma 0 -- -- 92
2020-07-21 02:00:00 18.6 0 Calma 0 Calma 0 -- -- 92
2020-07-21 01:00:00 18.4 0 Calma 0 Calma 0 -- -- 92
2020-07-21 00:00:00 18.6 0 Calma 0 Calma 0 -- -- 90
2020-07-20 23:00:00 19.8 0 Calma 9 Nordeste 0 -- -- 85
2020-07-20 22:00:00 21.1 4 Este 11 Nordeste 0 -- -- 82
2020-07-20 21:00:00 21.7 0 Calma 15 Noroeste 0 -- -- 78
2020-07-20 20:00:00 22 4 Noroeste 16 Noroeste 0 -- -- 78
2020-07-20 19:00:00 22.5 5 Noroeste 17 Noroeste 0 -- -- 77
2020-07-20 18:00:00 22.3 6 Noroeste 15 Noroeste 0 -- -- 77
2020-07-20 17:00:00 23.4 4 Sudoeste 14 Nordeste 0 -- -- 74
2020-07-20 16:00:00 24.7 8 Nordeste 25 Este 0 -- -- 70
2020-07-20 15:00:00 28.7 11 Nordeste 24 Nordeste 0 -- -- 59
2020-07-20 14:00:00 28.3 5 Nordeste 17 Nordeste 0 -- -- 52
2020-07-20 13:00:00 27.5 4 Este 11 Nordeste 0 -- -- 52
2020-07-20 12:00:00 25.6 4 Nordeste 12 Nordeste 0 -- -- 66
2020-07-20 11:00:00 23.6 2 Norte 7 Nordeste 0 -- -- 70
2020-07-20 10:00:00 19.9 0 Calma 5 Nordeste 0 -- -- 85
2020-07-20 09:00:00 17.3 0 Calma 4 Nordeste 0 -- -- 94
2020-07-20 08:00:00 15.6 2 Sudoeste 5 Sudoeste 0 -- -- 97
2020-07-20 07:00:00 15.2 0 Calma 3 Sur 0 -- -- 96
2020-07-20 06:00:00 15.8 2 Sudoeste 4 Sudoeste 0 -- -- 96
2020-07-20 05:00:00 16.5 0 Calma 6 Sur 0 -- -- 96
2020-07-20 04:00:00 16.6 2 Oeste 4 Oeste 0 -- -- 96
2020-07-20 03:00:00 17.1 0 Calma -- -- 0 -- -- 94
2020-07-20 02:00:00 17.7 0 Calma 2 Sudoeste 0 -- -- 93
2020-07-20 01:00:00 18.5 0 Calma 5 Oeste 0 -- -- 92
2020-07-20 00:00:00 19.7 0 Calma 0 Calma 0 -- -- 89
2020-07-19 23:00:00 21.3 0 Calma 13 Norte 0 -- -- 84
2020-07-19 22:00:00 23.1 0 Calma 13 Oeste 0 -- -- 76
2020-07-19 21:00:00 25.6 5 Oeste 21 Oeste 0 -- -- 68
2020-07-19 20:00:00 27 8 Oeste 15 Noroeste 0 -- -- 63
2020-07-19 19:00:00 27.1 6 Noroeste 15 Oeste 0 -- -- 65
2020-07-19 18:00:00 25.8 8 Noroeste 22 Nordeste 0 -- -- 69
2020-07-19 17:00:00 27.4 5 Nordeste 28 Nordeste 0 -- -- 66
2020-07-19 16:00:00 30.5 12 Este 28 Nordeste 0 -- -- 59
2020-07-19 15:00:00 30 9 Este 24 Nordeste 0 -- -- 57
2020-07-19 14:00:00 29.6 9 Este 17 Este 0 -- -- 55
2020-07-19 13:00:00 29.2 6 Este 13 Este 0 -- -- 54
2020-07-19 12:00:00 26.9 3 Norte 8 Nordeste 0 -- -- 57
2020-07-19 11:00:00 23.3 0 Calma 0 Calma 0 -- -- 67
2020-07-19 10:00:00 18.5 0 Calma 0 Calma 0 -- -- 84
2020-07-19 09:00:00 15.7 0 Calma 0 Calma 0 -- -- 94
2020-07-19 08:00:00 13.7 0 Calma 0 Calma 0 -- -- 98
2020-07-19 07:00:00 13.2 0 Calma 0 Calma 0 -- -- 97
2020-07-19 06:00:00 13.5 0 Calma 0 Calma 0 -- -- 96
2020-07-19 05:00:00 14 0 Calma 0 Calma 0 -- -- 96
2020-07-19 04:00:00 14.4 0 Calma 0 Calma 0 -- -- 95
2020-07-19 03:00:00 15.2 0 Calma 0 Calma 0 -- -- 95
2020-07-19 02:00:00 15.8 0 Calma 7 Noroeste 0 -- -- 94
2020-07-19 01:00:00 16.7 0 Calma 8 Sur 0 -- -- 92
2020-07-19 00:00:00 17.4 0 Calma 3 Sudoeste 0 -- -- 89
2020-07-18 23:00:00 19.3 0 Calma 3 Sur 0 -- -- 84
2020-07-18 22:00:00 22.3 0 Calma 6 Sudeste 0 -- -- 74
2020-07-18 21:00:00 26.3 4 Sudeste 13 Este 0 -- -- 60
2020-07-18 20:00:00 27.8 6 Este 15 Este 0 -- -- 60
2020-07-18 19:00:00 29.1 6 Este 19 Este 0 -- -- 53
2020-07-18 18:00:00 29.6 6 Este 21 Este 0 -- -- 53
2020-07-18 17:00:00 30.1 8 Este 23 Nordeste 0 -- -- 56
2020-07-18 16:00:00 29.9 9 Nordeste 22 Nordeste 0 -- -- 57
2020-07-18 15:00:00 30.3 9 Nordeste 19 Nordeste 0 -- -- 49
2020-07-18 14:00:00 29.4 8 Este 21 Nordeste 0 -- -- 49
2020-07-18 13:00:00 28.1 5 Este 18 Sudoeste 0 -- -- 51
2020-07-18 12:00:00 26.5 5 Este 16 Este 0 -- -- 58
2020-07-18 11:00:00 24.4 7 Nordeste 13 Este 0 -- -- 64
2020-07-18 10:00:00 19.2 3 Este 6 Nordeste 0 -- -- 83
2020-07-18 09:00:00 15.7 3 Noroeste 7 Oeste 0 -- -- 91
2020-07-18 08:00:00 13.2 2 Noroeste 6 Oeste 0 -- -- 98
2020-07-18 07:00:00 11.9 0 Calma 3 Noroeste 0 -- -- 97
2020-07-18 06:00:00 12.1 0 Calma 5 Oeste 0 -- -- 96
2020-07-18 05:00:00 12.7 0 Calma 4 Oeste 0 -- -- 95
2020-07-18 04:00:00 13.4 2 Oeste 6 Sudoeste 0 -- -- 95
2020-07-18 03:00:00 14.1 0 Calma 11 Sudeste 0 -- -- 93
2020-07-18 02:00:00 14.7 0 Calma 9 Sudeste 0 -- -- 92
2020-07-18 01:00:00 15.6 0 Calma 10 Sur 0 -- -- 90
2020-07-18 00:00:00 15.7 0 Calma 5 Oeste 0 -- -- 90
2020-07-17 23:00:00 17.4 0 Calma 5 Sur 0 -- -- 85
2020-07-17 22:00:00 20 2 Sudeste 8 Norte 0 -- -- 75
2020-07-17 21:00:00 23.4 3 Nordeste 13 Este 0 -- -- 62
2020-07-17 20:00:00 24.7 6 Nordeste 14 Este 0 -- -- 55
2020-07-17 19:00:00 25.2 6 Nordeste 18 Nordeste 0 -- -- 54
2020-07-17 18:00:00 25.4 8 Nordeste 22 Nordeste 0 -- -- 53
2020-07-17 17:00:00 25.5 6 Nordeste 21 Nordeste 0 -- -- 53
2020-07-17 16:00:00 25.5 5 Norte 19 Nordeste 0 -- -- 55
2020-07-17 15:00:00 25 7 Nordeste 19 Nordeste 0 -- -- 57
2020-07-17 14:00:00 24.4 5 Este 14 Oeste 0 -- -- 54
2020-07-17 13:00:00 22.7 3 Sudeste 8 Sur 0 -- -- 59
2020-07-17 12:00:00 20.9 3 Este 10 Nordeste 0 -- -- 67
2020-07-17 11:00:00 19.8 0 Calma 4 Nordeste 0 -- -- 72
2020-07-17 10:00:00 18.1 0 Calma 3 Norte 0 -- -- 85
2020-07-17 09:00:00 17 0 Calma 2 Oeste 0 -- -- 90
2020-07-17 08:00:00 16.4 0 Calma 2 Sudoeste 0 -- -- 94
2020-07-17 07:00:00 16.2 0 Calma 2 Sudoeste 0 -- -- 94
2020-07-17 06:00:00 16.3 0 Calma 4 Sudoeste 0 -- -- 93
2020-07-17 05:00:00 16.4 0 Calma 3 Sur 0 -- -- 93
2020-07-17 04:00:00 16.5 0 Calma 3 Sur 0 -- -- 91
2020-07-17 03:00:00 16.8 0 Calma 3 Oeste 0 -- -- 90
2020-07-17 02:00:00 17 0 Calma 3 Sur 0 -- -- 90
2020-07-17 01:00:00 17.2 0 Calma 3 Sur 0 -- -- 88
2020-07-17 00:00:00 17.6 0 Calma 4 Sudeste 0 -- -- 85
2020-07-16 23:00:00 18 0 Calma 8 Sudeste 0 -- -- 82
2020-07-16 22:00:00 19 3 Este 13 Nordeste 0 -- -- 76
2020-07-16 21:00:00 20.1 4 Este 17 Nordeste 0 -- -- 72
2020-07-16 20:00:00 21.3 8 Nordeste 20 Nordeste 0 -- -- 69
2020-07-16 19:00:00 21.6 8 Nordeste 18 Nordeste 0 -- -- 67
2020-07-16 18:00:00 22 6 Nordeste 19 Este 0 -- -- 66
2020-07-16 17:00:00 22.7 8 Nordeste 26 Nordeste 0 -- -- 62
2020-07-16 16:00:00 22.7 6 Este 21 Nordeste 0 -- -- 66
2020-07-16 15:00:00 23.1 7 Este 18 Nordeste 0 -- -- 64
2020-07-16 14:00:00 22.8 8 Este 18 Nordeste 0 -- -- 64
2020-07-16 13:00:00 22.7 3 Sudeste 10 Nordeste 0 -- -- 62
2020-07-16 12:00:00 21.2 4 Nordeste 10 Norte 0 -- -- 67
2020-07-16 11:00:00 19.1 0 Calma 0 Calma 0 -- -- 76
2020-07-16 10:00:00 17.3 0 Calma 0 Calma 0 -- -- 82
2020-07-16 09:00:00 15.3 0 Calma 0 Calma 0 -- -- 93
2020-07-16 08:00:00 14.1 0 Calma 0 Calma 0 -- -- 97
2020-07-16 07:00:00 13.7 0 Calma 0 Calma 0 -- -- 95
2020-07-16 06:00:00 14.5 0 Calma 0 Calma 0 -- -- 95
2020-07-16 05:00:00 14.8 0 Calma 0 Calma 0 -- -- 95
2020-07-16 04:00:00 14.8 0 Calma 0 Calma 0 -- -- 95
2020-07-16 03:00:00 14.7 0 Calma 4 Oeste 0 -- -- 94
2020-07-16 02:00:00 15.1 0 Calma 3 Sur 0 -- -- 92
2020-07-16 01:00:00 15.9 0 Calma 3 Sudoeste 0 -- -- 91
2020-07-16 00:00:00 16.5 0 Calma 3 Sudoeste 0 -- -- 88
2020-07-15 23:00:00 17.6 0 Calma 4 Sur 0 -- -- 84
2020-07-15 22:00:00 18.2 0 Calma 5 Nordeste 0 -- -- 82
2020-07-15 21:00:00 19.8 3 Sudoeste 11 Nordeste 0 -- -- 72
2020-07-15 20:00:00 19.9 4 Nordeste 23 Nordeste 0 -- -- 72
2020-07-15 19:00:00 20.6 9 Este 23 Nordeste 0 -- -- 70
2020-07-15 18:00:00 21.4 10 Este 20 Nordeste 0 -- -- 68
2020-07-15 17:00:00 21.8 9 Este 28 Este 0 -- -- 67
2020-07-15 16:00:00 22.2 9 Este 27 Este 0 -- -- 67
2020-07-15 15:00:00 22.5 8 Este 20 Nordeste 0 -- -- 70
2020-07-15 14:00:00 21.1 6 Noroeste 21 Oeste 0 -- -- 70
2020-07-15 13:00:00 20.5 4 Este 15 Este 0 -- -- 80
2020-07-15 12:00:00 18.7 3 Nordeste 7 Oeste 0 -- -- 88
2020-07-15 11:00:00 16.6 0 Calma 3 Noroeste 0.2 -- -- 94
2020-07-15 10:00:00 15.6 2 Nordeste 5 Nordeste 0.4 -- -- 96
2020-07-15 09:00:00 14.5 0 Calma 4 Oeste 0.4 -- -- 94
2020-07-15 08:00:00 14.2 0 Calma 4 Oeste 0 -- -- 94
2020-07-15 07:00:00 13.9 2 Sudoeste 5 Oeste 0 -- -- 94
2020-07-15 06:00:00 13.7 4 Oeste 7 Sudoeste 0 -- -- 93
2020-07-15 05:00:00 13.2 0 Calma 0 Calma 0 -- -- 94
2020-07-15 04:00:00 13.1 0 Calma 5 Oeste 0 -- -- 95
2020-07-15 03:00:00 12.5 0 Calma 4 Oeste 0 -- -- 93
2020-07-15 02:00:00 13.4 0 Calma 4 Sur 0 -- -- 90
2020-07-15 01:00:00 14.4 0 Calma 3 Noroeste 0 -- -- 91
2020-07-15 00:00:00 13.9 0 Calma 3 Sur 0 -- -- 89